createdAt,value
2019-03-03T00:01:04.497Z,28.17
2019-03-03T00:03:33.960Z,26.75
2019-03-03T00:06:03.408Z,26.15
2019-03-03T00:08:32.861Z,27.62
2019-03-03T00:11:02.263Z,27.15
2019-03-03T00:13:31.741Z,27.00
2019-03-03T00:16:01.171Z,29.27
2019-03-03T00:18:30.584Z,26.75
2019-03-03T00:21:00.003Z,27.27
2019-03-03T00:23:29.467Z,27.32
2019-03-03T00:25:58.896Z,27.65
2019-03-03T00:28:28.320Z,29.10
2019-03-03T00:30:57.782Z,28.30
2019-03-03T00:33:27.215Z,28.47
2019-03-03T00:35:56.647Z,30.20
2019-03-03T00:38:45.019Z,28.73
2019-03-03T00:41:36.197Z,28.92
2019-03-03T00:44:23.459Z,27.65
2019-03-03T00:47:11.837Z,27.20
2019-03-03T00:50:09.307Z,26.65
2019-03-03T00:53:05.137Z,30.32
2019-03-03T00:55:59.536Z,29.70
2019-03-03T00:59:00.290Z,28.40
2019-03-03T01:01:34.894Z,27.90
2019-03-03T01:04:32.651Z,27.37
2019-03-03T01:07:14.625Z,30.10
2019-03-03T01:09:51.069Z,28.30
2019-03-03T01:12:44.221Z,29.02
2019-03-03T01:15:20.276Z,27.95
2019-03-03T01:18:05.322Z,28.17
2019-03-03T01:20:43.728Z,29.40
2019-03-03T01:23:35.159Z,27.93
2019-03-03T01:26:04.730Z,27.50
2019-03-03T01:28:34.186Z,28.65
2019-03-03T01:31:03.659Z,28.50
2019-03-03T01:33:33.079Z,28.95
2019-03-03T01:36:02.503Z,29.65
2019-03-03T01:38:31.961Z,28.65
2019-03-03T01:41:01.399Z,27.73
2019-03-03T01:43:30.821Z,28.65
2019-03-03T01:46:00.240Z,29.15
2019-03-03T01:48:29.711Z,29.65
2019-03-03T01:50:59.515Z,32.75
2019-03-03T01:53:28.941Z,30.00
2019-03-03T01:55:58.375Z,30.37
2019-03-03T01:58:27.825Z,30.12
2019-03-03T02:00:57.285Z,31.23
2019-03-03T02:03:27.290Z,31.75
2019-03-03T02:05:56.707Z,33.13
2019-03-03T02:08:26.173Z,31.75
2019-03-03T02:10:55.617Z,32.70
2019-03-03T02:13:25.148Z,34.10
2019-03-03T02:15:54.578Z,33.30
2019-03-03T02:18:24.295Z,33.58
2019-03-03T02:20:53.735Z,33.53
2019-03-03T02:23:23.157Z,34.90
2019-03-03T02:25:52.576Z,36.17
2019-03-03T02:28:22.008Z,35.28
2019-03-03T02:30:51.514Z,35.05
2019-03-03T02:33:20.928Z,39.20
2019-03-03T02:35:50.754Z,36.68
2019-03-03T02:38:20.188Z,42.15
2019-03-03T02:40:49.639Z,42.65
2019-03-03T02:43:19.035Z,42.60
2019-03-03T02:45:48.463Z,44.45
2019-03-03T02:48:17.889Z,45.55
2019-03-03T02:50:47.497Z,42.23
2019-03-03T02:53:16.916Z,44.15
2019-03-03T02:55:46.423Z,44.10
2019-03-03T02:58:15.817Z,43.25
2019-03-03T03:01:13.462Z,42.67
2019-03-03T03:03:42.921Z,44.83
2019-03-03T03:06:29.276Z,44.98
2019-03-03T03:09:10.277Z,46.40
2019-03-03T03:12:17.064Z,47.55
2019-03-03T03:14:51.571Z,47.93
2019-03-03T03:17:45.269Z,46.73
2019-03-03T03:20:39.845Z,46.85
2019-03-03T03:23:24.314Z,44.18
2019-03-03T03:26:28.119Z,45.03
2019-03-03T03:29:20.687Z,44.15
2019-03-03T03:32:11.916Z,45.55
2019-03-03T03:34:56.502Z,45.67
2019-03-03T03:37:51.183Z,45.05
2019-03-03T03:40:55.264Z,44.95
2019-03-03T03:43:55.756Z,43.23
2019-03-03T03:46:46.918Z,42.20
2019-03-03T03:49:38.851Z,43.00
2019-03-03T03:52:29.900Z,41.02
2019-03-03T03:55:17.251Z,42.67
2019-03-03T03:58:08.942Z,39.53
2019-03-03T04:00:46.883Z,38.48
2019-03-03T04:03:41.547Z,41.00
2019-03-03T04:06:19.272Z,39.33
2019-03-03T04:09:06.622Z,39.25
2019-03-03T04:11:54.093Z,39.40
2019-03-03T04:14:49.045Z,38.85
2019-03-03T04:17:36.611Z,37.25
2019-03-03T04:20:31.609Z,39.05
2019-03-03T04:23:08.596Z,38.23
2019-03-03T04:25:49.012Z,41.85
2019-03-03T04:28:40.204Z,40.12
2019-03-03T04:31:27.897Z,38.65
2019-03-03T04:34:08.120Z,38.45
2019-03-03T04:36:55.407Z,41.28
2019-03-03T04:39:55.863Z,39.13
2019-03-03T04:42:47.239Z,38.30
2019-03-03T04:45:43.573Z,38.38
2019-03-03T04:48:41.190Z,40.25
2019-03-03T04:51:35.897Z,39.33
2019-03-03T04:54:12.456Z,41.60
2019-03-03T04:56:54.360Z,38.90
2019-03-03T04:59:48.525Z,37.05
2019-03-03T05:02:39.931Z,40.00
2019-03-03T05:05:31.182Z,39.13
2019-03-03T05:08:29.244Z,39.42
2019-03-03T05:11:16.667Z,38.10
2019-03-03T05:13:51.136Z,37.80
2019-03-03T05:16:57.932Z,36.98
2019-03-03T05:19:31.605Z,35.80
2019-03-03T05:22:01.052Z,37.35
2019-03-03T05:24:34.196Z,37.45
2019-03-03T05:27:01.566Z,35.98
2019-03-03T05:29:31.000Z,36.50
2019-03-03T05:32:00.478Z,35.80
2019-03-03T05:34:29.909Z,35.88
2019-03-03T05:36:59.357Z,38.85
2019-03-03T05:39:29.160Z,35.90
2019-03-03T05:41:58.579Z,36.28
2019-03-03T05:44:28.353Z,37.30
2019-03-03T05:46:57.787Z,39.15
2019-03-03T05:49:27.207Z,39.48
2019-03-03T05:51:56.631Z,42.27
2019-03-03T05:54:26.148Z,39.60
2019-03-03T05:56:55.581Z,38.65
2019-03-03T05:59:25.006Z,38.53
2019-03-03T06:01:54.723Z,41.10
2019-03-03T06:04:24.570Z,39.00
2019-03-03T06:06:53.946Z,39.85
2019-03-03T06:09:23.358Z,41.80
2019-03-03T06:11:52.801Z,41.23
2019-03-03T06:14:22.247Z,40.55
2019-03-03T06:16:51.980Z,42.62
2019-03-03T06:19:21.717Z,44.77
2019-03-03T06:21:51.147Z,56.28
2019-03-03T06:24:20.564Z,59.25
2019-03-03T06:26:50.017Z,50.80
2019-03-03T06:29:19.471Z,60.52
2019-03-03T06:31:48.896Z,45.45
2019-03-03T06:34:19.255Z,67.78
2019-03-03T06:36:48.867Z,49.23
2019-03-03T06:39:18.338Z,42.20
2019-03-03T06:41:47.801Z,43.83
2019-03-03T06:44:17.221Z,40.48
2019-03-03T06:46:46.953Z,39.55
2019-03-03T06:49:16.369Z,39.20
2019-03-03T06:51:46.166Z,36.63
2019-03-03T06:54:15.621Z,35.50
2019-03-03T06:56:45.073Z,34.30
2019-03-03T06:59:14.505Z,35.05
2019-03-03T07:01:44.392Z,35.68
2019-03-03T07:04:13.822Z,34.53
2019-03-03T07:06:43.775Z,31.27
2019-03-03T07:09:13.605Z,30.95
2019-03-03T07:11:43.125Z,29.27
2019-03-03T07:14:12.581Z,30.17
2019-03-03T07:16:42.047Z,31.20
2019-03-03T07:19:11.824Z,29.77
2019-03-03T07:21:41.289Z,30.27
2019-03-03T07:24:10.743Z,28.42
2019-03-03T07:26:40.910Z,25.97
2019-03-03T07:29:10.411Z,22.67
2019-03-03T07:31:39.844Z,23.22
2019-03-03T07:34:09.318Z,23.05
2019-03-03T07:36:38.729Z,22.55
2019-03-03T07:39:19.922Z,22.25
2019-03-03T07:41:49.890Z,22.13
2019-03-03T07:44:19.367Z,22.58
2019-03-03T07:46:48.921Z,21.62
2019-03-03T07:49:18.354Z,18.90
2019-03-03T07:51:47.799Z,18.95
2019-03-03T07:54:17.246Z,17.82
2019-03-03T07:56:46.712Z,18.70
2019-03-03T07:59:16.137Z,19.87
2019-03-03T08:01:45.602Z,18.30
2019-03-03T08:04:15.031Z,17.80
2019-03-03T08:06:44.774Z,17.62
2019-03-03T08:09:14.412Z,16.57
2019-03-03T08:11:43.855Z,15.35
2019-03-03T08:14:13.657Z,14.98
2019-03-03T08:16:43.474Z,14.05
2019-03-03T08:19:12.894Z,14.07
2019-03-03T08:21:42.381Z,14.30
2019-03-03T08:24:11.795Z,13.85
2019-03-03T08:26:41.250Z,14.25
2019-03-03T08:29:11.579Z,13.10
2019-03-03T08:31:41.015Z,13.75
2019-03-03T08:34:10.510Z,13.58
2019-03-03T08:36:39.985Z,13.13
2019-03-03T08:39:09.434Z,14.20
2019-03-03T08:41:42.054Z,14.38
2019-03-03T08:44:18.004Z,15.63
2019-03-03T08:46:54.283Z,14.15
2019-03-03T08:49:41.278Z,13.62
2019-03-03T08:52:22.673Z,13.13
2019-03-03T08:55:14.118Z,14.25
2019-03-03T08:58:08.857Z,13.88
2019-03-03T09:00:52.368Z,14.68
2019-03-03T09:03:40.771Z,14.33
2019-03-03T09:06:28.179Z,14.43
2019-03-03T09:09:20.185Z,14.20
2019-03-03T09:11:58.348Z,15.13
2019-03-03T09:14:58.662Z,16.02
2019-03-03T09:17:45.639Z,14.58
2019-03-03T09:20:37.342Z,14.10
2019-03-03T09:23:16.339Z,12.85
2019-03-03T09:26:10.025Z,14.30
2019-03-03T09:28:51.240Z,14.35
2019-03-03T09:31:42.537Z,14.45
2019-03-03T09:34:31.551Z,13.60
2019-03-03T09:37:22.952Z,13.60
2019-03-03T09:40:20.339Z,12.35
2019-03-03T09:42:59.718Z,12.45
2019-03-03T09:45:46.669Z,12.28
2019-03-03T09:48:34.029Z,12.07
2019-03-03T09:51:09.635Z,10.78
2019-03-03T09:54:03.844Z,10.72
2019-03-03T09:56:52.233Z,11.22
2019-03-03T09:59:34.113Z,12.05
2019-03-03T10:02:18.088Z,10.50
2019-03-03T10:05:15.343Z,10.95
2019-03-03T10:08:03.739Z,10.90
2019-03-03T10:10:47.824Z,10.58
2019-03-03T10:13:24.913Z,10.75
2019-03-03T10:16:19.542Z,11.22
2019-03-03T10:18:56.722Z,10.40
2019-03-03T10:21:44.074Z,10.70
2019-03-03T10:24:47.568Z,11.43
2019-03-03T10:27:34.486Z,12.95
2019-03-03T10:30:22.529Z,13.40
2019-03-03T10:33:01.548Z,11.10
2019-03-03T10:35:50.066Z,10.88
2019-03-03T10:38:36.333Z,11.33
2019-03-03T10:41:33.811Z,11.80
2019-03-03T10:44:15.997Z,12.10
2019-03-03T10:47:11.203Z,9.98
2019-03-03T10:49:48.617Z,10.75
2019-03-03T10:52:37.657Z,10.43
2019-03-03T10:55:19.349Z,10.75
2019-03-03T10:57:59.386Z,10.08
2019-03-03T11:00:41.485Z,10.20
2019-03-03T11:03:38.929Z,9.75
2019-03-03T11:06:39.242Z,9.50
2019-03-03T11:09:30.081Z,10.00
2019-03-03T11:12:17.192Z,9.93
2019-03-03T11:15:01.987Z,9.28
2019-03-03T11:17:49.395Z,8.88
2019-03-03T11:20:40.563Z,9.63
2019-03-03T11:23:21.814Z,10.35
2019-03-03T11:26:10.403Z,10.48
2019-03-03T11:28:57.711Z,10.20
2019-03-03T11:31:46.118Z,11.18
2019-03-03T11:34:37.762Z,10.50
2019-03-03T11:37:35.395Z,9.83
2019-03-03T11:40:18.985Z,9.78
2019-03-03T11:43:00.666Z,11.55
2019-03-03T11:46:07.614Z,10.08
2019-03-03T11:48:58.941Z,8.85
2019-03-03T11:51:46.128Z,8.40
2019-03-03T11:54:35.205Z,7.87
2019-03-03T11:57:41.942Z,8.05
2019-03-03T12:00:22.125Z,9.03
2019-03-03T12:03:22.611Z,7.92
2019-03-03T12:05:59.260Z,8.20
2019-03-03T12:08:34.541Z,7.50
2019-03-03T12:11:41.124Z,8.15
2019-03-03T12:14:29.732Z,8.23
2019-03-03T12:17:17.773Z,8.53
2019-03-03T12:20:00.915Z,6.10
2019-03-03T12:22:48.333Z,6.58
2019-03-03T12:25:33.057Z,6.65
2019-03-03T12:28:24.189Z,6.10
2019-03-03T12:31:03.122Z,5.10
2019-03-03T12:33:55.314Z,6.08
2019-03-03T12:36:37.890Z,5.05
2019-03-03T12:39:30.316Z,5.85
2019-03-03T12:42:27.819Z,4.72
2019-03-03T12:45:08.665Z,4.22
2019-03-03T12:47:47.394Z,4.72
2019-03-03T12:50:34.466Z,4.60
2019-03-03T12:53:11.067Z,3.20
2019-03-03T12:56:17.885Z,3.62
2019-03-03T12:59:06.314Z,4.20
2019-03-03T13:01:53.999Z,3.55
2019-03-03T13:04:54.732Z,4.78
2019-03-03T13:07:41.806Z,3.30
2019-03-03T13:10:21.861Z,3.00
2019-03-03T13:13:03.260Z,3.62
2019-03-03T13:16:04.038Z,3.22
2019-03-03T13:18:58.333Z,2.77
2019-03-03T13:21:38.407Z,2.83
2019-03-03T13:24:20.670Z,2.72
2019-03-03T13:26:59.710Z,2.37
2019-03-03T13:29:53.919Z,3.30
2019-03-03T13:32:42.616Z,3.00
2019-03-03T13:35:22.467Z,2.55
2019-03-03T13:38:08.397Z,2.02
2019-03-03T13:41:01.862Z,3.02
2019-03-03T13:43:31.259Z,2.77
2019-03-03T13:46:00.722Z,3.15
2019-03-03T13:48:30.446Z,3.40
2019-03-03T13:50:59.872Z,3.50
2019-03-03T13:53:29.347Z,4.50
2019-03-03T13:55:58.775Z,3.47
2019-03-03T13:58:28.606Z,2.65
2019-03-03T14:00:58.746Z,2.92
2019-03-03T14:03:28.282Z,3.45
2019-03-03T14:05:58.005Z,3.27
2019-03-03T14:08:27.487Z,2.90
2019-03-03T14:10:57.299Z,3.08
2019-03-03T14:13:27.818Z,3.37
2019-03-03T14:15:57.265Z,2.92
2019-03-03T14:18:26.797Z,3.67
2019-03-03T14:20:56.223Z,3.17
2019-03-03T14:23:26.093Z,2.98
2019-03-03T14:25:55.887Z,3.05
2019-03-03T14:28:25.305Z,2.67
2019-03-03T14:30:55.087Z,2.60
2019-03-03T14:33:24.542Z,3.60
2019-03-03T14:35:53.984Z,2.70
2019-03-03T14:38:23.410Z,3.10
2019-03-03T14:40:52.823Z,4.08
2019-03-03T14:43:22.276Z,4.00
2019-03-03T14:45:52.167Z,3.35
2019-03-03T14:48:21.642Z,3.62
2019-03-03T14:50:51.071Z,3.05
2019-03-03T14:53:20.534Z,2.50
2019-03-03T14:55:49.970Z,3.20
2019-03-03T14:58:19.425Z,3.12
2019-03-03T15:00:49.251Z,3.17
2019-03-03T15:03:18.679Z,3.50
2019-03-03T15:05:48.111Z,3.05
2019-03-03T15:08:17.658Z,3.12
2019-03-03T15:10:47.080Z,2.80
2019-03-03T15:13:16.499Z,2.58
2019-03-03T15:15:45.978Z,2.45
2019-03-03T15:18:15.696Z,3.15
2019-03-03T15:20:45.212Z,2.45
2019-03-03T15:23:15.013Z,3.35
2019-03-03T15:25:44.430Z,3.20
2019-03-03T15:28:13.923Z,3.10
2019-03-03T15:30:43.630Z,3.30
2019-03-03T15:33:13.074Z,2.77
2019-03-03T15:35:42.473Z,3.35
2019-03-03T15:38:11.996Z,2.80
2019-03-03T15:40:41.483Z,3.35
2019-03-03T15:43:11.010Z,3.60
2019-03-03T15:45:40.420Z,4.47
2019-03-03T15:48:10.128Z,3.65
2019-03-03T15:50:40.199Z,5.50
2019-03-03T15:53:09.735Z,4.30
2019-03-03T15:55:39.166Z,4.60
2019-03-03T15:58:09.205Z,4.30
2019-03-03T16:00:38.882Z,4.62
2019-03-03T16:03:08.396Z,5.17
2019-03-03T16:05:39.673Z,5.78
2019-03-03T16:08:09.157Z,4.37
2019-03-03T16:10:42.500Z,5.12
2019-03-03T16:13:12.462Z,4.30
2019-03-03T16:15:42.219Z,3.83
2019-03-03T16:18:12.074Z,5.22
2019-03-03T16:20:41.511Z,4.42
2019-03-03T16:23:11.025Z,4.33
2019-03-03T16:25:40.466Z,3.90
2019-03-03T16:28:09.831Z,4.78
2019-03-03T16:30:39.346Z,5.58
2019-03-03T16:33:08.772Z,4.85
2019-03-03T16:35:38.505Z,4.67
2019-03-03T16:38:07.952Z,5.47
2019-03-03T16:40:39.800Z,5.20
2019-03-03T16:43:08.500Z,4.67
2019-03-03T16:45:38.301Z,6.00
2019-03-03T16:48:07.766Z,5.15
2019-03-03T16:50:37.207Z,4.58
2019-03-03T16:53:08.045Z,5.08
2019-03-03T16:55:37.543Z,4.70
2019-03-03T16:58:06.997Z,4.78
2019-03-03T17:00:36.619Z,5.00
2019-03-03T17:03:06.045Z,4.67
2019-03-03T17:05:35.895Z,4.58
2019-03-03T17:08:05.353Z,4.37
2019-03-03T17:10:34.853Z,5.62
2019-03-03T17:13:05.125Z,5.70
2019-03-03T17:15:34.676Z,5.80
2019-03-03T17:18:04.278Z,5.25
2019-03-03T17:20:34.166Z,5.87
2019-03-03T17:23:03.966Z,5.85
2019-03-03T17:25:33.812Z,6.40
2019-03-03T17:28:03.717Z,7.10
2019-03-03T17:30:33.158Z,5.47
2019-03-03T17:33:02.846Z,9.70
2019-03-03T17:35:32.653Z,7.78
2019-03-03T17:38:02.075Z,5.28
2019-03-03T17:40:31.549Z,6.33
2019-03-03T17:43:01.265Z,5.45
2019-03-03T17:45:30.684Z,6.33
2019-03-03T17:48:00.149Z,5.12
2019-03-03T17:50:29.962Z,6.00
2019-03-03T17:52:59.532Z,4.67
2019-03-03T17:55:28.970Z,5.30
2019-03-03T17:57:58.426Z,4.25
2019-03-03T18:00:29.443Z,4.40
2019-03-03T18:02:59.208Z,4.97
2019-03-03T18:05:28.641Z,5.95
2019-03-03T18:07:58.597Z,4.62
2019-03-03T18:10:28.543Z,4.62
2019-03-03T18:12:58.017Z,6.08
2019-03-03T18:15:27.433Z,5.30
2019-03-03T18:17:56.942Z,4.53
2019-03-03T18:20:26.516Z,4.80
2019-03-03T18:22:56.325Z,4.53
2019-03-03T18:25:25.689Z,4.60
2019-03-03T18:27:55.492Z,4.55
2019-03-03T18:30:25.226Z,4.70
2019-03-03T18:32:54.743Z,4.90
2019-03-03T18:35:24.605Z,6.10
2019-03-03T18:37:54.410Z,5.75
2019-03-03T18:40:24.298Z,6.40
2019-03-03T18:42:54.082Z,7.83
2019-03-03T18:45:23.573Z,7.45
2019-03-03T18:47:53.209Z,6.70
2019-03-03T18:50:22.687Z,7.20
2019-03-03T18:52:52.134Z,5.17
2019-03-03T18:55:21.624Z,5.37
2019-03-03T18:57:51.280Z,6.25
2019-03-03T19:00:23.474Z,6.42
2019-03-03T19:02:53.543Z,5.65
2019-03-03T19:05:23.117Z,4.80
2019-03-03T19:07:53.176Z,4.78
2019-03-03T19:10:25.225Z,5.55
2019-03-03T19:12:54.793Z,8.85
2019-03-03T19:15:24.872Z,7.87
2019-03-03T19:17:54.571Z,11.35
2019-03-03T19:20:24.638Z,10.53
2019-03-03T19:22:54.358Z,6.83
2019-03-03T19:25:24.017Z,7.28
2019-03-03T19:27:53.639Z,5.55
2019-03-03T19:30:24.892Z,6.00
2019-03-03T19:33:01.106Z,7.10
2019-03-03T19:35:30.624Z,6.65
2019-03-03T19:38:01.524Z,5.30
2019-03-03T19:40:31.054Z,6.10
2019-03-03T19:43:00.573Z,5.28
2019-03-03T19:45:31.896Z,5.30
2019-03-03T19:48:01.681Z,4.97
2019-03-03T19:50:31.427Z,5.33
2019-03-03T19:53:01.027Z,5.30
2019-03-03T19:55:30.455Z,5.20
2019-03-03T19:57:59.895Z,5.25
2019-03-03T20:00:35.348Z,5.30
2019-03-03T20:03:02.728Z,5.50
2019-03-03T20:05:32.248Z,5.22
2019-03-03T20:08:01.806Z,4.80
2019-03-03T20:10:31.298Z,4.60
2019-03-03T20:13:00.908Z,4.95
2019-03-03T20:15:30.554Z,4.40
2019-03-03T20:18:00.018Z,4.10
2019-03-03T20:20:29.785Z,4.65
2019-03-03T20:22:59.454Z,4.90
2019-03-03T20:25:29.401Z,4.53
2019-03-03T20:27:58.879Z,4.25
2019-03-03T20:30:28.277Z,4.00
2019-03-03T20:32:58.105Z,4.35
2019-03-03T20:35:27.714Z,4.17
2019-03-03T20:37:57.169Z,4.30
2019-03-03T20:40:27.082Z,4.15
2019-03-03T20:42:56.591Z,4.62
2019-03-03T20:45:26.512Z,4.60
2019-03-03T20:47:55.960Z,4.70
2019-03-03T20:50:25.410Z,4.50
2019-03-03T20:52:55.222Z,4.62
2019-03-03T20:55:24.833Z,5.00
2019-03-03T20:57:54.311Z,4.12
2019-03-03T21:00:25.180Z,4.20
2019-03-03T21:02:54.681Z,4.45
2019-03-03T21:05:24.613Z,3.92
2019-03-03T21:07:54.290Z,4.35
2019-03-03T21:10:24.101Z,4.22
2019-03-03T21:12:55.574Z,3.65
2019-03-03T21:15:25.524Z,4.33
2019-03-03T21:17:55.023Z,4.42
2019-03-03T21:20:24.878Z,3.60
2019-03-03T21:22:54.298Z,3.98
2019-03-03T21:25:23.834Z,3.42
2019-03-03T21:27:53.463Z,2.92
2019-03-03T21:30:24.057Z,3.00
2019-03-03T21:32:53.916Z,3.60
2019-03-03T21:35:23.341Z,4.03
2019-03-03T21:37:54.369Z,3.62
2019-03-03T21:40:23.787Z,3.15
2019-03-03T21:42:53.335Z,3.70
2019-03-03T21:45:22.841Z,3.75
2019-03-03T21:47:52.480Z,4.08
2019-03-03T21:50:22.654Z,4.12
2019-03-03T21:52:52.067Z,3.60
2019-03-03T21:55:21.641Z,3.42
2019-03-03T21:57:51.155Z,3.30
2019-03-03T22:00:31.752Z,3.85
2019-03-03T22:03:01.189Z,4.55
2019-03-03T22:05:31.339Z,3.98
2019-03-03T22:08:00.759Z,3.47
2019-03-03T22:10:31.047Z,3.15
2019-03-03T22:13:08.289Z,3.75
2019-03-03T22:15:37.773Z,3.17
2019-03-03T22:18:07.597Z,2.90
2019-03-03T22:20:37.047Z,3.98
2019-03-03T22:23:06.635Z,3.25
2019-03-03T22:25:36.297Z,3.20
2019-03-03T22:28:05.921Z,3.12
2019-03-03T22:30:35.377Z,3.33
2019-03-03T22:33:04.971Z,3.47
2019-03-03T22:35:34.497Z,3.02
2019-03-03T22:38:03.926Z,3.10
2019-03-03T22:40:33.832Z,3.15
2019-03-03T22:43:03.182Z,3.30
2019-03-03T22:45:32.638Z,2.65
2019-03-03T22:48:02.067Z,3.40
2019-03-03T22:50:31.535Z,3.37
2019-03-03T22:53:01.268Z,3.17
2019-03-03T22:55:39.696Z,2.65
2019-03-03T22:58:09.334Z,2.87
2019-03-03T23:00:51.310Z,3.25
2019-03-03T23:03:27.669Z,2.52
2019-03-03T23:06:06.968Z,3.08
2019-03-03T23:09:29.355Z,2.62
2019-03-03T23:12:12.470Z,2.58
2019-03-03T23:15:07.629Z,2.50
2019-03-03T23:18:11.949Z,2.95
2019-03-03T23:21:31.110Z,3.12
2019-03-03T23:24:42.569Z,3.62
2019-03-03T23:27:12.037Z,2.60
2019-03-03T23:29:41.467Z,3.27
2019-03-03T23:32:10.884Z,2.55
2019-03-03T23:34:40.289Z,2.80
2019-03-03T23:37:10.043Z,2.62
2019-03-03T23:39:39.474Z,2.70
2019-03-03T23:42:09.236Z,3.05
2019-03-03T23:44:39.026Z,2.98
2019-03-03T23:47:08.467Z,2.40
2019-03-03T23:49:37.909Z,2.87
2019-03-03T23:52:07.340Z,2.87
2019-03-03T23:54:36.771Z,2.75
2019-03-03T23:57:06.217Z,2.45
2019-03-03T23:59:35.683Z,2.50
